sensor_id;sensor_type;location;lat;lon;timestamp;pressure;altitude;pressure_sealevel;temperature;humidity
79376;BME280;68846;53.150;18.136;2024-01-16T00:00:43;99259.22;;;-2.49;67.02
79376;BME280;68846;53.150;18.136;2024-01-16T00:03:32;99266.30;;;-2.48;66.89
79376;BME280;68846;53.150;18.136;2024-01-16T00:06:00;99273.18;;;-2.48;65.98
79376;BME280;68846;53.150;18.136;2024-01-16T00:08:28;99275.83;;;-2.51;65.05
79376;BME280;68846;53.150;18.136;2024-01-16T00:10:56;99278.73;;;-2.56;64.43
79376;BME280;68846;53.150;18.136;2024-01-16T00:13:24;99288.70;;;-2.61;64.68
79376;BME280;68846;53.150;18.136;2024-01-16T00:15:52;99294.56;;;-2.65;64.03
79376;BME280;68846;53.150;18.136;2024-01-16T00:18:20;99296.06;;;-2.66;64.34
79376;BME280;68846;53.150;18.136;2024-01-16T00:20:48;99298.23;;;-2.68;64.14
79376;BME280;68846;53.150;18.136;2024-01-16T00:23:16;99308.95;;;-2.67;64.53
79376;BME280;68846;53.150;18.136;2024-01-16T00:25:44;99309.71;;;-2.70;63.34
79376;BME280;68846;53.150;18.136;2024-01-16T00:28:12;99313.45;;;-2.75;63.28
79376;BME280;68846;53.150;18.136;2024-01-16T00:30:40;99326.60;;;-2.82;62.34
79376;BME280;68846;53.150;18.136;2024-01-16T00:33:08;99321.59;;;-2.91;62.79
79376;BME280;68846;53.150;18.136;2024-01-16T00:35:37;99328.54;;;-2.98;63.14
79376;BME280;68846;53.150;18.136;2024-01-16T00:38:05;99333.81;;;-3.03;63.43
79376;BME280;68846;53.150;18.136;2024-01-16T00:40:33;99336.98;;;-3.06;64.13
79376;BME280;68846;53.150;18.136;2024-01-16T00:43:01;99340.66;;;-3.08;64.43
79376;BME280;68846;53.150;18.136;2024-01-16T00:45:29;99350.05;;;-3.10;64.87
79376;BME280;68846;53.150;18.136;2024-01-16T00:47:58;99353.09;;;-3.11;64.76
79376;BME280;68846;53.150;18.136;2024-01-16T00:50:26;99356.45;;;-3.13;64.70
79376;BME280;68846;53.150;18.136;2024-01-16T00:52:54;99355.89;;;-3.14;65.09
79376;BME280;68846;53.150;18.136;2024-01-16T00:55:22;99361.34;;;-3.15;65.15
79376;BME280;68846;53.150;18.136;2024-01-16T00:57:51;99371.80;;;-3.16;65.24
79376;BME280;68846;53.150;18.136;2024-01-16T01:00:19;99373.02;;;-3.19;65.17
79376;BME280;68846;53.150;18.136;2024-01-16T01:02:47;99372.45;;;-3.21;65.70
79376;BME280;68846;53.150;18.136;2024-01-16T01:05:15;99373.45;;;-3.22;65.55
79376;BME280;68846;53.150;18.136;2024-01-16T01:07:43;99378.14;;;-3.25;65.58
79376;BME280;68846;53.150;18.136;2024-01-16T01:10:11;99385.88;;;-3.29;64.43
79376;BME280;68846;53.150;18.136;2024-01-16T01:12:39;99393.09;;;-3.33;64.10
79376;BME280;68846;53.150;18.136;2024-01-16T01:15:07;99392.41;;;-3.37;63.68
79376;BME280;68846;53.150;18.136;2024-01-16T01:17:36;99405.09;;;-3.42;63.34
79376;BME280;68846;53.150;18.136;2024-01-16T01:20:05;99407.15;;;-3.46;63.81
79376;BME280;68846;53.150;18.136;2024-01-16T01:22:33;99414.73;;;-3.49;63.99
79376;BME280;68846;53.150;18.136;2024-01-16T01:25:01;99411.24;;;-3.54;63.72
79376;BME280;68846;53.150;18.136;2024-01-16T01:27:29;99417.49;;;-3.56;64.06
79376;BME280;68846;53.150;18.136;2024-01-16T01:29:57;99420.39;;;-3.57;64.27
79376;BME280;68846;53.150;18.136;2024-01-16T01:32:25;99420.67;;;-3.58;64.31
79376;BME280;68846;53.150;18.136;2024-01-16T01:34:54;99424.31;;;-3.58;64.70
79376;BME280;68846;53.150;18.136;2024-01-16T01:37:22;99432.23;;;-3.58;64.79
79376;BME280;68846;53.150;18.136;2024-01-16T01:39:50;99430.48;;;-3.59;64.42
79376;BME280;68846;53.150;18.136;2024-01-16T01:42:19;99427.64;;;-3.60;64.56
79376;BME280;68846;53.150;18.136;2024-01-16T01:44:47;99430.95;;;-3.60;64.82
79376;BME280;68846;53.150;18.136;2024-01-16T01:47:15;99432.20;;;-3.62;64.40
79376;BME280;68846;53.150;18.136;2024-01-16T01:49:45;99437.33;;;-3.63;64.55
79376;BME280;68846;53.150;18.136;2024-01-16T01:52:13;99436.75;;;-3.64;64.48
79376;BME280;68846;53.150;18.136;2024-01-16T01:54:41;99446.73;;;-3.64;64.91
79376;BME280;68846;53.150;18.136;2024-01-16T01:57:08;99447.92;;;-3.64;64.78
79376;BME280;68846;53.150;18.136;2024-01-16T01:59:37;99456.70;;;-3.65;64.78
79376;BME280;68846;53.150;18.136;2024-01-16T02:02:05;99462.55;;;-3.65;65.05
79376;BME280;68846;53.150;18.136;2024-01-16T02:04:34;99474.08;;;-3.65;65.14
79376;BME280;68846;53.150;18.136;2024-01-16T02:07:02;99482.52;;;-3.64;65.08
79376;BME280;68846;53.150;18.136;2024-01-16T02:09:31;99485.75;;;-3.65;65.29
79376;BME280;68846;53.150;18.136;2024-01-16T02:12:00;99483.11;;;-3.66;64.90
79376;BME280;68846;53.150;18.136;2024-01-16T02:14:28;99488.71;;;-3.68;65.00
79376;BME280;68846;53.150;18.136;2024-01-16T02:16:56;99490.45;;;-3.67;64.82
79376;BME280;68846;53.150;18.136;2024-01-16T02:19:24;99492.48;;;-3.65;64.89
79376;BME280;68846;53.150;18.136;2024-01-16T02:21:59;99493.59;;;-3.63;64.36
79376;BME280;68846;53.150;18.136;2024-01-16T02:24:28;99504.50;;;-3.61;64.10
79376;BME280;68846;53.150;18.136;2024-01-16T02:26:56;99509.66;;;-3.62;64.07
79376;BME280;68846;53.150;18.136;2024-01-16T02:29:24;99513.38;;;-3.63;64.23
79376;BME280;68846;53.150;18.136;2024-01-16T02:31:52;99522.29;;;-3.64;64.19
79376;BME280;68846;53.150;18.136;2024-01-16T02:34:20;99528.17;;;-3.66;64.06
79376;BME280;68846;53.150;18.136;2024-01-16T02:36:48;99522.13;;;-3.70;64.03
79376;BME280;68846;53.150;18.136;2024-01-16T02:39:16;99524.17;;;-3.75;64.16
79376;BME280;68846;53.150;18.136;2024-01-16T02:41:44;99529.90;;;-3.77;64.35
79376;BME280;68846;53.150;18.136;2024-01-16T02:44:12;99525.85;;;-3.79;64.53
79376;BME280;68846;53.150;18.136;2024-01-16T02:46:40;99533.34;;;-3.80;64.50
79376;BME280;68846;53.150;18.136;2024-01-16T02:49:08;99538.55;;;-3.83;64.36
79376;BME280;68846;53.150;18.136;2024-01-16T02:51:36;99541.89;;;-3.85;64.57
79376;BME280;68846;53.150;18.136;2024-01-16T02:54:07;99549.33;;;-3.84;64.92
79376;BME280;68846;53.150;18.136;2024-01-16T02:56:35;99549.10;;;-3.85;64.91
79376;BME280;68846;53.150;18.136;2024-01-16T03:03:36;99555.79;;;-3.89;64.87
79376;BME280;68846;53.150;18.136;2024-01-16T03:06:04;99556.63;;;-3.93;64.57
79376;BME280;68846;53.150;18.136;2024-01-16T03:13:30;99562.04;;;-3.98;65.09
79376;BME280;68846;53.150;18.136;2024-01-16T03:15:58;99569.11;;;-4.01;64.44
79376;BME280;68846;53.150;18.136;2024-01-16T03:19:22;99576.92;;;-4.07;64.00
79376;BME280;68846;53.150;18.136;2024-01-16T03:21:50;99576.47;;;-4.12;64.23
79376;BME280;68846;53.150;18.136;2024-01-16T03:24:18;99579.70;;;-4.16;64.39
79376;BME280;68846;53.150;18.136;2024-01-16T03:26:46;99580.66;;;-4.18;64.73
79376;BME280;68846;53.150;18.136;2024-01-16T03:29:14;99581.30;;;-4.19;64.61
79376;BME280;68846;53.150;18.136;2024-01-16T03:31:42;99582.32;;;-4.19;64.92
79376;BME280;68846;53.150;18.136;2024-01-16T03:34:10;99589.17;;;-4.19;64.83
79376;BME280;68846;53.150;18.136;2024-01-16T03:36:38;99588.09;;;-4.20;65.11
79376;BME280;68846;53.150;18.136;2024-01-16T03:39:06;99594.10;;;-4.20;65.03
79376;BME280;68846;53.150;18.136;2024-01-16T03:41:35;99592.33;;;-4.21;65.33
79376;BME280;68846;53.150;18.136;2024-01-16T03:44:03;99591.98;;;-4.21;65.16
79376;BME280;68846;53.150;18.136;2024-01-16T03:50:17;99594.95;;;-4.24;65.57
79376;BME280;68846;53.150;18.136;2024-01-16T03:52:45;99595.50;;;-4.23;65.82
79376;BME280;68846;53.150;18.136;2024-01-16T03:55:14;99598.39;;;-4.24;65.53
79376;BME280;68846;53.150;18.136;2024-01-16T03:57:42;99607.13;;;-4.25;65.75
79376;BME280;68846;53.150;18.136;2024-01-16T04:00:12;99610.75;;;-4.24;65.77
79376;BME280;68846;53.150;18.136;2024-01-16T04:02:40;99618.83;;;-4.24;65.81
79376;BME280;68846;53.150;18.136;2024-01-16T04:05:08;99616.97;;;-4.27;65.39
79376;BME280;68846;53.150;18.136;2024-01-16T04:07:36;99620.45;;;-4.29;65.36
79376;BME280;68846;53.150;18.136;2024-01-16T04:10:06;99617.20;;;-4.32;65.54
79376;BME280;68846;53.150;18.136;2024-01-16T04:17:07;99611.34;;;-4.42;65.50
79376;BME280;68846;53.150;18.136;2024-01-16T04:23:22;99616.68;;;-4.42;65.58
79376;BME280;68846;53.150;18.136;2024-01-16T04:29:36;99629.84;;;-4.37;65.67
79376;BME280;68846;53.150;18.136;2024-01-16T04:35:47;99637.54;;;-4.35;65.45
79376;BME280;68846;53.150;18.136;2024-01-16T04:38:15;99644.36;;;-4.36;65.56
79376;BME280;68846;53.150;18.136;2024-01-16T04:40:43;99653.28;;;-4.39;65.33
79376;BME280;68846;53.150;18.136;2024-01-16T04:43:11;99660.76;;;-4.44;65.70
79376;BME280;68846;53.150;18.136;2024-01-16T04:45:39;99664.05;;;-4.46;65.72
79376;BME280;68846;53.150;18.136;2024-01-16T04:53:03;99649.59;;;-4.56;66.25
79376;BME280;68846;53.150;18.136;2024-01-16T04:55:32;99660.98;;;-4.59;66.23
79376;BME280;68846;53.150;18.136;2024-01-16T04:58:01;99665.95;;;-4.62;66.49
79376;BME280;68846;53.150;18.136;2024-01-16T05:00:28;99669.56;;;-4.65;66.45
79376;BME280;68846;53.150;18.136;2024-01-16T05:02:56;99669.41;;;-4.68;66.50
79376;BME280;68846;53.150;18.136;2024-01-16T05:05:26;99674.22;;;-4.71;66.60
79376;BME280;68846;53.150;18.136;2024-01-16T05:07:54;99685.46;;;-4.73;66.91
79376;BME280;68846;53.150;18.136;2024-01-16T05:10:21;99695.48;;;-4.75;67.13
79376;BME280;68846;53.150;18.136;2024-01-16T05:12:50;99695.41;;;-4.76;67.14
79376;BME280;68846;53.150;18.136;2024-01-16T05:16:08;99691.73;;;-4.77;67.29
79376;BME280;68846;53.150;18.136;2024-01-16T05:23:59;99700.69;;;-4.83;67.34
79376;BME280;68846;53.150;18.136;2024-01-16T05:26:27;99705.49;;;-4.86;67.36
79376;BME280;68846;53.150;18.136;2024-01-16T05:28:55;99705.80;;;-4.90;67.36
79376;BME280;68846;53.150;18.136;2024-01-16T05:31:23;99714.34;;;-4.94;67.53
79376;BME280;68846;53.150;18.136;2024-01-16T05:33:51;99712.06;;;-4.98;67.77
79376;BME280;68846;53.150;18.136;2024-01-16T05:36:19;99716.95;;;-5.02;67.75
79376;BME280;68846;53.150;18.136;2024-01-16T05:38:47;99721.36;;;-5.06;67.83
79376;BME280;68846;53.150;18.136;2024-01-16T05:41:43;99728.23;;;-5.09;67.84
79376;BME280;68846;53.150;18.136;2024-01-16T05:44:11;99732.24;;;-5.11;68.08
79376;BME280;68846;53.150;18.136;2024-01-16T05:46:39;99732.35;;;-5.12;68.05
79376;BME280;68846;53.150;18.136;2024-01-16T05:49:07;99740.48;;;-5.14;68.39
79376;BME280;68846;53.150;18.136;2024-01-16T05:51:36;99743.52;;;-5.15;68.31
79376;BME280;68846;53.150;18.136;2024-01-16T05:54:05;99749.01;;;-5.15;68.29
79376;BME280;68846;53.150;18.136;2024-01-16T05:56:33;99756.53;;;-5.13;68.52
79376;BME280;68846;53.150;18.136;2024-01-16T05:59:01;99758.80;;;-5.09;68.32
79376;BME280;68846;53.150;18.136;2024-01-16T06:01:29;99756.88;;;-5.03;68.10
79376;BME280;68846;53.150;18.136;2024-01-16T06:03:57;99760.36;;;-5.00;68.01
79376;BME280;68846;53.150;18.136;2024-01-16T06:06:25;99767.49;;;-4.98;68.00
79376;BME280;68846;53.150;18.136;2024-01-16T06:08:53;99772.70;;;-4.97;68.10
79376;BME280;68846;53.150;18.136;2024-01-16T06:11:34;99774.15;;;-4.96;68.18
79376;BME280;68846;53.150;18.136;2024-01-16T06:14:05;99768.71;;;-4.95;68.04
79376;BME280;68846;53.150;18.136;2024-01-16T06:16:37;99775.69;;;-4.99;67.99
79376;BME280;68846;53.150;18.136;2024-01-16T06:19:06;99781.58;;;-5.04;68.30
79376;BME280;68846;53.150;18.136;2024-01-16T06:21:35;99785.55;;;-5.06;68.40
79376;BME280;68846;53.150;18.136;2024-01-16T06:24:04;99793.15;;;-5.09;68.42
79376;BME280;68846;53.150;18.136;2024-01-16T06:26:33;99798.02;;;-5.11;68.65
79376;BME280;68846;53.150;18.136;2024-01-16T06:29:00;99806.42;;;-5.14;68.62
79376;BME280;68846;53.150;18.136;2024-01-16T06:31:28;99809.67;;;-5.17;68.66
79376;BME280;68846;53.150;18.136;2024-01-16T06:33:56;99814.84;;;-5.19;68.78
79376;BME280;68846;53.150;18.136;2024-01-16T06:36:24;99814.45;;;-5.23;68.84
79376;BME280;68846;53.150;18.136;2024-01-16T06:38:54;99814.12;;;-5.28;68.79
79376;BME280;68846;53.150;18.136;2024-01-16T06:41:22;99817.97;;;-5.33;69.05
79376;BME280;68846;53.150;18.136;2024-01-16T06:43:50;99821.70;;;-5.37;69.10
79376;BME280;68846;53.150;18.136;2024-01-16T06:46:21;99822.23;;;-5.40;69.21
79376;BME280;68846;53.150;18.136;2024-01-16T06:48:49;99821.98;;;-5.44;69.37
79376;BME280;68846;53.150;18.136;2024-01-16T06:51:17;99826.52;;;-5.48;69.33
79376;BME280;68846;53.150;18.136;2024-01-16T06:53:46;99829.54;;;-5.52;69.55
79376;BME280;68846;53.150;18.136;2024-01-16T06:56:14;99831.73;;;-5.56;69.64
79376;BME280;68846;53.150;18.136;2024-01-16T06:58:43;99835.19;;;-5.58;69.68
79376;BME280;68846;53.150;18.136;2024-01-16T07:01:11;99838.69;;;-5.57;69.66
79376;BME280;68846;53.150;18.136;2024-01-16T07:03:40;99841.77;;;-5.54;69.85
79376;BME280;68846;53.150;18.136;2024-01-16T07:06:08;99843.77;;;-5.49;69.82
79376;BME280;68846;53.150;18.136;2024-01-16T07:08:37;99848.36;;;-5.44;69.82
79376;BME280;68846;53.150;18.136;2024-01-16T07:11:05;99853.57;;;-5.41;69.74
79376;BME280;68846;53.150;18.136;2024-01-16T07:13:36;99860.86;;;-5.36;69.75
79376;BME280;68846;53.150;18.136;2024-01-16T07:16:04;99866.81;;;-5.31;69.68
79376;BME280;68846;53.150;18.136;2024-01-16T07:18:32;99872.82;;;-5.29;69.58
79376;BME280;68846;53.150;18.136;2024-01-16T07:21:00;99877.65;;;-5.25;69.65
79376;BME280;68846;53.150;18.136;2024-01-16T07:23:30;99882.69;;;-5.24;69.61
79376;BME280;68846;53.150;18.136;2024-01-16T07:25:58;99884.22;;;-5.22;69.80
79376;BME280;68846;53.150;18.136;2024-01-16T07:28:26;99890.14;;;-5.17;69.61
79376;BME280;68846;53.150;18.136;2024-01-16T07:35:52;99898.83;;;-5.13;69.32
79376;BME280;68846;53.150;18.136;2024-01-16T07:38:21;99903.80;;;-5.13;69.36
79376;BME280;68846;53.150;18.136;2024-01-16T07:40:49;99906.63;;;-5.12;69.30
79376;BME280;68846;53.150;18.136;2024-01-16T07:43:17;99906.02;;;-5.07;69.56
79376;BME280;68846;53.150;18.136;2024-01-16T07:45:45;99907.41;;;-5.01;69.45
79376;BME280;68846;53.150;18.136;2024-01-16T07:48:12;99907.46;;;-4.98;69.35
79376;BME280;68846;53.150;18.136;2024-01-16T07:50:40;99913.52;;;-4.91;69.22
79376;BME280;68846;53.150;18.136;2024-01-16T07:53:08;99918.30;;;-4.83;69.24
79376;BME280;68846;53.150;18.136;2024-01-16T07:55:36;99920.46;;;-4.76;69.01
79376;BME280;68846;53.150;18.136;2024-01-16T07:58:04;99919.48;;;-4.69;69.08
79376;BME280;68846;53.150;18.136;2024-01-16T08:00:34;99923.48;;;-4.62;68.86
79376;BME280;68846;53.150;18.136;2024-01-16T08:03:07;99933.83;;;-4.56;68.65
79376;BME280;68846;53.150;18.136;2024-01-16T08:05:36;99934.42;;;-4.51;68.47
79376;BME280;68846;53.150;18.136;2024-01-16T08:08:05;99934.59;;;-4.49;68.45
79376;BME280;68846;53.150;18.136;2024-01-16T08:10:33;99940.92;;;-4.46;68.31
79376;BME280;68846;53.150;18.136;2024-01-16T08:13:01;99939.77;;;-4.45;68.16
79376;BME280;68846;53.150;18.136;2024-01-16T08:15:28;99948.34;;;-4.46;68.16
79376;BME280;68846;53.150;18.136;2024-01-16T08:17:56;99947.63;;;-4.46;68.11
79376;BME280;68846;53.150;18.136;2024-01-16T08:20:24;99954.57;;;-4.45;68.03
79376;BME280;68846;53.150;18.136;2024-01-16T08:22:53;99958.46;;;-4.43;68.11
79376;BME280;68846;53.150;18.136;2024-01-16T08:25:21;99960.31;;;-4.41;67.99
79376;BME280;68846;53.150;18.136;2024-01-16T08:27:49;99966.43;;;-4.39;67.81
79376;BME280;68846;53.150;18.136;2024-01-16T08:30:17;99967.40;;;-4.40;67.75
79376;BME280;68846;53.150;18.136;2024-01-16T08:32:45;99972.19;;;-4.40;67.38
79376;BME280;68846;53.150;18.136;2024-01-16T08:35:14;99967.52;;;-4.41;67.78
79376;BME280;68846;53.150;18.136;2024-01-16T08:37:42;99972.80;;;-4.39;67.70
79376;BME280;68846;53.150;18.136;2024-01-16T08:40:11;99977.83;;;-4.35;67.24
79376;BME280;68846;53.150;18.136;2024-01-16T08:42:39;99981.73;;;-4.30;67.28
79376;BME280;68846;53.150;18.136;2024-01-16T08:45:07;99986.86;;;-4.25;67.27
79376;BME280;68846;53.150;18.136;2024-01-16T08:47:35;99995.27;;;-4.19;66.74
79376;BME280;68846;53.150;18.136;2024-01-16T08:50:28;99997.04;;;-4.15;66.62
79376;BME280;68846;53.150;18.136;2024-01-16T08:52:56;99998.91;;;-4.10;66.41
79376;BME280;68846;53.150;18.136;2024-01-16T08:55:24;99998.85;;;-4.08;65.88
79376;BME280;68846;53.150;18.136;2024-01-16T08:57:51;100006.30;;;-4.04;65.73
79376;BME280;68846;53.150;18.136;2024-01-16T09:00:19;100006.77;;;-4.01;65.69
79376;BME280;68846;53.150;18.136;2024-01-16T09:02:48;100007.67;;;-3.95;65.98
79376;BME280;68846;53.150;18.136;2024-01-16T09:05:16;100012.27;;;-3.87;65.89
79376;BME280;68846;53.150;18.136;2024-01-16T09:07:44;100018.13;;;-3.81;65.43
79376;BME280;68846;53.150;18.136;2024-01-16T09:10:13;100019.45;;;-3.79;65.32
79376;BME280;68846;53.150;18.136;2024-01-16T09:12:41;100023.89;;;-3.77;65.09
79376;BME280;68846;53.150;18.136;2024-01-16T09:15:09;100032.86;;;-3.76;65.28
79376;BME280;68846;53.150;18.136;2024-01-16T09:17:38;100032.59;;;-3.74;64.88
79376;BME280;68846;53.150;18.136;2024-01-16T09:20:07;100037.06;;;-3.74;65.11
79376;BME280;68846;53.150;18.136;2024-01-16T09:22:35;100041.78;;;-3.73;65.05
79376;BME280;68846;53.150;18.136;2024-01-16T09:25:03;100043.14;;;-3.73;64.79
79376;BME280;68846;53.150;18.136;2024-01-16T09:27:31;100039.59;;;-3.75;64.41
79376;BME280;68846;53.150;18.136;2024-01-16T09:29:59;100039.91;;;-3.79;64.01
79376;BME280;68846;53.150;18.136;2024-01-16T09:32:27;100043.23;;;-3.82;64.24
79376;BME280;68846;53.150;18.136;2024-01-16T09:34:56;100052.17;;;-3.84;64.50
79376;BME280;68846;53.150;18.136;2024-01-16T09:37:25;100058.26;;;-3.86;64.23
79376;BME280;68846;53.150;18.136;2024-01-16T09:39:53;100055.25;;;-3.90;64.18
79376;BME280;68846;53.150;18.136;2024-01-16T09:42:22;100052.42;;;-3.95;64.35
79376;BME280;68846;53.150;18.136;2024-01-16T09:44:50;100055.59;;;-3.96;64.75
79376;BME280;68846;53.150;18.136;2024-01-16T09:47:19;100055.44;;;-3.96;65.35
79376;BME280;68846;53.150;18.136;2024-01-16T09:49:48;100062.05;;;-3.95;65.66
79376;BME280;68846;53.150;18.136;2024-01-16T09:52:16;100066.71;;;-3.95;65.46
79376;BME280;68846;53.150;18.136;2024-01-16T09:54:44;100069.61;;;-3.98;65.71
79376;BME280;68846;53.150;18.136;2024-01-16T09:57:13;100073.33;;;-3.99;65.91
79376;BME280;68846;53.150;18.136;2024-01-16T09:59:42;100081.27;;;-3.98;66.00
79376;BME280;68846;53.150;18.136;2024-01-16T10:02:11;100085.33;;;-4.00;65.66
79376;BME280;68846;53.150;18.136;2024-01-16T10:04:44;100082.64;;;-4.02;65.80
79376;BME280;68846;53.150;18.136;2024-01-16T10:07:14;100087.27;;;-4.01;66.14
79376;BME280;68846;53.150;18.136;2024-01-16T10:09:46;100095.93;;;-4.01;65.55
79376;BME280;68846;53.150;18.136;2024-01-16T10:12:13;100097.79;;;-4.04;64.99
79376;BME280;68846;53.150;18.136;2024-01-16T10:14:42;100096.16;;;-4.08;65.49
79376;BME280;68846;53.150;18.136;2024-01-16T10:17:11;100100.38;;;-4.07;65.72
79376;BME280;68846;53.150;18.136;2024-01-16T10:19:48;100105.83;;;-4.05;65.71
79376;BME280;68846;53.150;18.136;2024-01-16T10:22:22;100110.91;;;-4.03;65.66
79376;BME280;68846;53.150;18.136;2024-01-16T10:25:09;100114.56;;;-4.00;65.75
79376;BME280;68846;53.150;18.136;2024-01-16T10:27:39;100111.38;;;-3.95;66.02
79376;BME280;68846;53.150;18.136;2024-01-16T10:30:08;100112.41;;;-3.90;66.11
79376;BME280;68846;53.150;18.136;2024-01-16T10:32:40;100108.53;;;-3.85;65.78
79376;BME280;68846;53.150;18.136;2024-01-16T10:35:13;100105.98;;;-3.82;65.77
79376;BME280;68846;53.150;18.136;2024-01-16T10:37:49;100111.98;;;-3.76;65.81
79376;BME280;68846;53.150;18.136;2024-01-16T10:40:20;100111.50;;;-3.70;65.83
79376;BME280;68846;53.150;18.136;2024-01-16T10:43:02;100109.80;;;-3.63;65.44
79376;BME280;68846;53.150;18.136;2024-01-16T10:45:32;100110.66;;;-3.58;64.96
79376;BME280;68846;53.150;18.136;2024-01-16T10:48:05;100112.03;;;-3.55;64.33
79376;BME280;68846;53.150;18.136;2024-01-16T10:50:37;100111.19;;;-3.52;64.87
79376;BME280;68846;53.150;18.136;2024-01-16T10:53:07;100111.29;;;-3.47;65.04
79376;BME280;68846;53.150;18.136;2024-01-16T10:55:50;100110.31;;;-3.42;64.84
79376;BME280;68846;53.150;18.136;2024-01-16T10:58:23;100114.41;;;-3.40;64.45
79376;BME280;68846;53.150;18.136;2024-01-16T11:00:54;100120.01;;;-3.39;64.10
79376;BME280;68846;53.150;18.136;2024-01-16T11:03:38;100118.75;;;-3.40;64.18
79376;BME280;68846;53.150;18.136;2024-01-16T11:06:10;100116.52;;;-3.39;64.41
79376;BME280;68846;53.150;18.136;2024-01-16T11:08:39;100116.08;;;-3.38;64.31
79376;BME280;68846;53.150;18.136;2024-01-16T11:11:09;100116.77;;;-3.38;63.78
79376;BME280;68846;53.150;18.136;2024-01-16T11:13:38;100119.86;;;-3.38;64.01
79376;BME280;68846;53.150;18.136;2024-01-16T11:16:07;100121.64;;;-3.37;64.27
79376;BME280;68846;53.150;18.136;2024-01-16T11:18:36;100129.70;;;-3.35;64.06
79376;BME280;68846;53.150;18.136;2024-01-16T11:21:15;100126.55;;;-3.33;64.12
79376;BME280;68846;53.150;18.136;2024-01-16T11:23:44;100133.61;;;-3.30;63.69
79376;BME280;68846;53.150;18.136;2024-01-16T11:26:30;100130.95;;;-3.29;63.48
79376;BME280;68846;53.150;18.136;2024-01-16T11:29:02;100127.73;;;-3.28;63.39
79376;BME280;68846;53.150;18.136;2024-01-16T11:31:48;100132.30;;;-3.29;63.72
79376;BME280;68846;53.150;18.136;2024-01-16T11:37:11;100133.30;;;-3.26;63.51
79376;BME280;68846;53.150;18.136;2024-01-16T11:39:40;100139.14;;;-3.23;63.47
79376;BME280;68846;53.150;18.136;2024-01-16T11:42:08;100140.95;;;-3.22;63.54
79376;BME280;68846;53.150;18.136;2024-01-16T11:44:43;100143.42;;;-3.21;63.58
79376;BME280;68846;53.150;18.136;2024-01-16T11:47:20;100147.52;;;-3.15;63.93
79376;BME280;68846;53.150;18.136;2024-01-16T11:50:09;100146.36;;;-3.08;63.76
79376;BME280;68846;53.150;18.136;2024-01-16T11:52:44;100146.90;;;-3.02;63.24
79376;BME280;68846;53.150;18.136;2024-01-16T11:55:31;100146.02;;;-2.99;63.12
79376;BME280;68846;53.150;18.136;2024-01-16T12:00:58;100149.42;;;-2.97;62.88
79376;BME280;68846;53.150;18.136;2024-01-16T12:03:27;100151.01;;;-2.93;63.07
79376;BME280;68846;53.150;18.136;2024-01-16T12:05:56;100146.47;;;-2.88;62.89
79376;BME280;68846;53.150;18.136;2024-01-16T12:08:23;100153.95;;;-2.80;62.94
79376;BME280;68846;53.150;18.136;2024-01-16T12:10:52;100151.59;;;-2.73;62.72
79376;BME280;68846;53.150;18.136;2024-01-16T12:13:21;100158.92;;;-2.69;62.67
79376;BME280;68846;53.150;18.136;2024-01-16T12:15:59;100157.95;;;-2.67;62.21
79376;BME280;68846;53.150;18.136;2024-01-16T12:18:27;100160.39;;;-2.67;62.34
79376;BME280;68846;53.150;18.136;2024-01-16T12:20:55;100159.01;;;-2.67;62.32
79376;BME280;68846;53.150;18.136;2024-01-16T12:23:24;100162.40;;;-2.68;62.11
79376;BME280;68846;53.150;18.136;2024-01-16T12:25:53;100165.98;;;-2.68;62.05
79376;BME280;68846;53.150;18.136;2024-01-16T12:28:26;100164.43;;;-2.75;61.51
79376;BME280;68846;53.150;18.136;2024-01-16T12:30:54;100164.96;;;-2.81;61.29
79376;BME280;68846;53.150;18.136;2024-01-16T12:33:22;100162.26;;;-2.86;61.74
79376;BME280;68846;53.150;18.136;2024-01-16T12:36:00;100162.79;;;-2.89;61.80
79376;BME280;68846;53.150;18.136;2024-01-16T12:38:29;100160.63;;;-2.90;61.68
79376;BME280;68846;53.150;18.136;2024-01-16T12:40:58;100163.55;;;-2.94;61.48
79376;BME280;68846;53.150;18.136;2024-01-16T12:43:29;100163.45;;;-2.96;61.77
79376;BME280;68846;53.150;18.136;2024-01-16T12:45:57;100168.81;;;-2.92;62.25
79376;BME280;68846;53.150;18.136;2024-01-16T12:48:25;100171.80;;;-2.88;61.95
79376;BME280;68846;53.150;18.136;2024-01-16T12:51:02;100179.15;;;-2.83;61.60
79376;BME280;68846;53.150;18.136;2024-01-16T12:53:34;100182.64;;;-2.76;61.39
79376;BME280;68846;53.150;18.136;2024-01-16T12:56:04;100181.79;;;-2.73;61.01
79376;BME280;68846;53.150;18.136;2024-01-16T12:58:34;100184.48;;;-2.68;61.84
79376;BME280;68846;53.150;18.136;2024-01-16T13:01:26;100184.19;;;-2.60;61.03
79376;BME280;68846;53.150;18.136;2024-01-16T13:03:55;100189.85;;;-2.55;61.13
79376;BME280;68846;53.150;18.136;2024-01-16T13:06:23;100197.01;;;-2.50;61.28
79376;BME280;68846;53.150;18.136;2024-01-16T13:08:51;100202.29;;;-2.45;61.74
79376;BME280;68846;53.150;18.136;2024-01-16T13:11:51;100206.38;;;-2.39;60.84
79376;BME280;68846;53.150;18.136;2024-01-16T13:14:21;100203.27;;;-2.36;60.68
79376;BME280;68846;53.150;18.136;2024-01-16T13:16:51;100207.73;;;-2.31;61.08
79376;BME280;68846;53.150;18.136;2024-01-16T13:19:19;100216.10;;;-2.23;60.44
79376;BME280;68846;53.150;18.136;2024-01-16T13:21:48;100212.27;;;-2.17;59.74
79376;BME280;68846;53.150;18.136;2024-01-16T13:24:17;100213.50;;;-2.10;59.75
79376;BME280;68846;53.150;18.136;2024-01-16T13:26:48;100211.41;;;-2.07;58.55
79376;BME280;68846;53.150;18.136;2024-01-16T13:29:15;100209.48;;;-2.05;59.66
79376;BME280;68846;53.150;18.136;2024-01-16T13:31:43;100211.09;;;-2.03;59.30
79376;BME280;68846;53.150;18.136;2024-01-16T13:34:11;100210.48;;;-2.05;59.38
79376;BME280;68846;53.150;18.136;2024-01-16T13:36:39;100207.77;;;-2.07;59.46
79376;BME280;68846;53.150;18.136;2024-01-16T13:39:07;100209.73;;;-2.09;59.60
79376;BME280;68846;53.150;18.136;2024-01-16T13:41:42;100209.79;;;-2.15;58.99
79376;BME280;68846;53.150;18.136;2024-01-16T13:44:10;100212.90;;;-2.25;59.04
79376;BME280;68846;53.150;18.136;2024-01-16T13:46:40;100215.76;;;-2.32;59.46
79376;BME280;68846;53.150;18.136;2024-01-16T13:49:08;100216.67;;;-2.37;60.02